Аэропорт
Сургут (USRR)

 USRR / SGC
ЗЦ Екатеринбург
Тюмень (USTR)
Тюмень (USTR)
 61.34370, 73.40180  / 200 ft

 USRR 211000Z 34004MPS 7000 NSC 08/M02 Q1018 R25/CLRD60 NOSIG RMK QFE758
 TAF USRR 210155Z 2103/2203 01005G11MPS 9999 BKN020 TEMPO 2103/2109 3100 -SHRA BR BKN005 BKN015CB
АИП Таблицы, Данные, АИП_1605
показать схемы

2017 © VATRUS division